Time;durP1;ratioP1;P1;durP2;ratioP2;P2;SDS_P1;SDS_P2;PMS_P1;PMS_P2;Temp;Humidity;BMP_temperature;BMP_pressure;BME280_temperature;BME280_humidity;BME280_pressure;Samples;Min_cycle;Max_cycle;Signal;HPM_P1;HPM_P2
2021/12/24 00:00:44;;;;;;;;;;;2.10;99.90;;;;;;5091672;28;19973;-53
2021/12/24 00:03:11;;;;;;;;;;;2.10;99.90;;;;;;5091614;28;19931;-54
2021/12/24 00:05:38;;;;;;;;;;;2.10;99.90;;;;;;5073533;28;20463;-53
2021/12/24 00:08:06;;;;;;;;;;;2.10;99.90;;;;;;5091437;28;19920;-51
2021/12/24 00:10:33;;;;;;;;;;;2.20;99.90;;;;;;5091523;28;19973;-53
2021/12/24 00:13:08;;;;;;;;;;;2.20;99.90;;;;;;5091571;28;19920;-51
2021/12/24 00:37:26;;;;;;;;;;;2.30;99.90;;;;;;5056162;28;20276;-54
2021/12/24 00:42:51;;;;;;;;;;;2.40;99.90;;;;;;5057193;28;19920;-54
2021/12/24 00:45:20;;;;;;;;;;;2.40;99.90;;;;;;5055659;28;20018;-56
2021/12/24 00:47:47;;;;;;;;;;;2.40;99.90;;;;;;5074344;28;20446;-55
2021/12/24 00:50:18;;;;;;;;;;;2.40;99.90;;;;;;5073584;28;20368;-54
2021/12/24 00:52:49;;;;;;;;;;;2.50;99.90;;;;;;5073931;28;19985;-56
2021/12/24 00:55:17;;;;;;;;;;;2.50;99.90;;;;;;5065761;28;20304;-53
2021/12/24 00:57:46;;;;;;;;;;;2.50;99.90;;;;;;5072964;28;19925;-55
2021/12/24 01:00:18;;;;;;;;;;;2.60;99.90;;;;;;5074082;28;19920;-51
2021/12/24 01:02:45;;;;;;;;;;;2.50;99.90;;;;;;5074132;28;19933;-55
2021/12/24 01:05:13;;;;;;;;;;;2.50;99.90;;;;;;5073479;28;20296;-52
2021/12/24 01:07:44;;;;;;;;;;;2.50;99.90;;;;;;5072862;28;20296;-55
2021/12/24 01:10:13;;;;;;;;;;;2.50;99.90;;;;;;5072632;28;20027;-55
2021/12/24 01:12:40;;;;;;;;;;;2.50;99.90;;;;;;5072589;28;20380;-55
2021/12/24 01:15:07;;;;;;;;;;;2.50;99.90;;;;;;5072025;28;19927;-55
2021/12/24 01:17:41;;;;;;;;;;;2.50;99.90;;;;;;5072411;28;20351;-53
2021/12/24 01:20:20;;;;;;;;;;;2.50;99.90;;;;;;5072477;28;19928;-54
2021/12/24 01:25:34;;;;;;;;;;;2.40;99.90;;;;;;5072756;28;19931;-55
2021/12/24 01:28:27;;;;;;;;;;;2.40;99.90;;;;;;5072418;28;19920;-51
2021/12/24 01:39:18;;;;;;;;;;;2.30;99.90;;;;;;5072089;28;19920;-52
2021/12/24 01:44:32;;;;;;;;;;;2.40;99.90;;;;;;5073046;28;19943;-53
2021/12/24 01:47:06;;;;;;;;;;;2.40;99.90;;;;;;5071636;28;19974;-54
2021/12/24 01:49:34;;;;;;;;;;;2.30;99.90;;;;;;5071878;28;20015;-54
2021/12/24 01:52:04;;;;;;;;;;;2.40;99.90;;;;;;5071840;28;19978;-54
2021/12/24 01:54:33;;;;;;;;;;;2.30;99.90;;;;;;5071712;28;19927;-54
2021/12/24 01:57:00;;;;;;;;;;;2.20;99.90;;;;;;5071368;28;19927;-54
2021/12/24 01:59:27;;;;;;;;;;;2.20;99.90;;;;;;5071519;28;19925;-55
2021/12/24 02:01:54;;;;;;;;;;;2.20;99.90;;;;;;5071642;28;20349;-55
2021/12/24 02:04:21;;;;;;;;;;;2.20;99.90;;;;;;5071734;28;19920;-53
2021/12/24 02:06:48;;;;;;;;;;;2.20;99.90;;;;;;5071118;28;19921;-53
2021/12/24 02:09:16;;;;;;;;;;;2.20;99.90;;;;;;5071311;28;19963;-52
2021/12/24 02:11:44;;;;;;;;;;;2.30;99.90;;;;;;5072518;28;19927;-53
2021/12/24 02:14:14;;;;;;;;;;;2.30;99.90;;;;;;5071449;28;19974;-53
2021/12/24 02:31:02;;;;;;;;;;;2.40;99.90;;;;;;5049125;28;19927;-54
2021/12/24 02:33:29;;;;;;;;;;;2.30;99.90;;;;;;5071086;28;20010;-54
2021/12/24 02:35:56;;;;;;;;;;;2.20;99.90;;;;;;5071856;28;20404;-54
2021/12/24 02:38:23;;;;;;;;;;;2.20;99.90;;;;;;5071020;28;19930;-54
2021/12/24 02:40:50;;;;;;;;;;;2.20;99.90;;;;;;5072008;28;19955;-52
2021/12/24 02:43:20;;;;;;;;;;;2.20;99.90;;;;;;5071011;28;19924;-55
2021/12/24 02:45:49;;;;;;;;;;;2.10;99.90;;;;;;5071699;28;19920;-52
2021/12/24 02:56:46;;;;;;;;;;;2.10;99.90;;;;;;5029403;28;19921;-52
2021/12/24 02:59:14;;;;;;;;;;;2.10;99.90;;;;;;5013053;28;19971;-53
2021/12/24 03:01:42;;;;;;;;;;;2.10;99.90;;;;;;5041997;28;19924;-55
2021/12/24 03:04:09;;;;;;;;;;;2.00;99.90;;;;;;5070731;28;19959;-52
2021/12/24 03:06:38;;;;;;;;;;;1.90;99.90;;;;;;5070138;28;19966;-54
2021/12/24 03:09:08;;;;;;;;;;;1.90;99.90;;;;;;5070687;28;20561;-51
2021/12/24 03:11:36;;;;;;;;;;;1.90;99.90;;;;;;5071843;28;19958;-55
2021/12/24 03:14:07;;;;;;;;;;;2.00;99.90;;;;;;5070659;28;19924;-55
2021/12/24 03:16:35;;;;;;;;;;;2.00;99.90;;;;;;5070182;28;19927;-54
2021/12/24 03:19:03;;;;;;;;;;;2.00;99.90;;;;;;5070373;28;20372;-54
2021/12/24 03:21:43;;;;;;;;;;;2.00;99.90;;;;;;5071821;28;19920;-54
2021/12/24 03:26:42;;;;;;;;;;;1.90;99.90;;;;;;5071340;28;19924;-56
2021/12/24 03:29:11;;;;;;;;;;;1.90;99.90;;;;;;5070520;28;19946;-55
2021/12/24 03:31:37;;;;;;;;;;;1.90;99.90;;;;;;5071648;28;19920;-55
2021/12/24 03:34:10;;;;;;;;;;;1.90;99.90;;;;;;5070560;28;19965;-54
2021/12/24 03:36:39;;;;;;;;;;;1.90;99.90;;;;;;5070117;28;19920;-51
2021/12/24 03:39:09;;;;;;;;;;;1.80;99.90;;;;;;5070370;28;19920;-54
2021/12/24 03:41:36;;;;;;;;;;;1.80;99.90;;;;;;5070438;28;19924;-52
2021/12/24 03:44:04;;;;;;;;;;;1.80;99.90;;;;;;5070267;28;19943;-54
2021/12/24 03:46:41;;;;;;;;;;;1.80;99.90;;;;;;5069952;28;19927;-55
2021/12/24 03:49:17;;;;;;;;;;;1.80;99.90;;;;;;5070092;28;19927;-55
2021/12/24 03:51:54;;;;;;;;;;;1.70;99.90;;;;;;5070347;28;19920;-56
2021/12/24 03:57:07;;;;;;;;;;;1.60;99.90;;;;;;5073583;28;19920;-54
2021/12/24 03:59:54;;;;;;;;;;;1.60;99.90;;;;;;5075276;28;19927;-55
2021/12/24 04:02:40;;;;;;;;;;;1.50;99.90;;;;;;5075199;28;20402;-52
2021/12/24 04:05:34;;;;;;;;;;;1.50;99.90;;;;;;5051107;28;20030;-55
2021/12/24 04:08:19;;;;;;;;;;;1.50;99.90;;;;;;5074456;28;19927;-53
2021/12/24 04:11:00;;;;;;;;;;;1.40;99.90;;;;;;5073638;28;19956;-55
2021/12/24 04:13:30;;;;;;;;;;;1.40;99.90;;;;;;5073974;28;19962;-51
2021/12/24 04:15:57;;;;;;;;;;;1.40;99.90;;;;;;5073408;28;19978;-52
2021/12/24 04:26:30;;;;;;;;;;;1.30;99.90;;;;;;5072944;28;19920;-52
2021/12/24 04:28:57;;;;;;;;;;;1.30;99.90;;;;;;5073470;28;19920;-51
2021/12/24 04:31:38;;;;;;;;;;;1.30;99.90;;;;;;5073431;28;20396;-51
2021/12/24 04:34:27;;;;;;;;;;;1.30;99.90;;;;;;5075016;28;20021;-53
2021/12/24 04:37:38;;;;;;;;;;;1.30;99.90;;;;;;5072892;28;19943;-55
2021/12/24 04:51:00;;;;;;;;;;;1.30;99.90;;;;;;5072888;28;20339;-53
2021/12/24 05:04:30;;;;;;;;;;;0.90;99.90;;;;;;5072655;28;19931;-51
2021/12/24 05:07:06;;;;;;;;;;;0.80;99.90;;;;;;5073727;28;20019;-53
2021/12/24 05:09:35;;;;;;;;;;;0.70;99.90;;;;;;5072861;28;19927;-54
2021/12/24 05:12:02;;;;;;;;;;;0.70;99.90;;;;;;5072591;28;19927;-55
2021/12/24 05:14:31;;;;;;;;;;;0.70;99.90;;;;;;5072641;28;19942;-52
2021/12/24 05:17:29;;;;;;;;;;;0.70;99.90;;;;;;5073114;28;20395;-52
2021/12/24 05:23:13;;;;;;;;;;;0.70;99.90;;;;;;5072496;28;19924;-54
2021/12/24 05:26:06;;;;;;;;;;;0.70;99.90;;;;;;5100938;22;19923;-57
2021/12/24 05:28:33;;;;;;;;;;;0.60;99.90;;;;;;5133204;27;20439;-55
2021/12/24 05:31:01;;;;;;;;;;;0.60;99.90;;;;;;5128305;27;19923;-52
2021/12/24 05:33:28;;;;;;;;;;;0.60;99.90;;;;;;5108731;28;19928;-53
2021/12/24 05:35:55;;;;;;;;;;;0.60;99.90;;;;;;5095449;28;19965;-55
2021/12/24 05:38:22;;;;;;;;;;;0.60;99.90;;;;;;5113980;28;19942;-52
2021/12/24 05:40:49;;;;;;;;;;;0.50;99.90;;;;;;5114072;28;19949;-54
2021/12/24 05:43:16;;;;;;;;;;;0.50;99.90;;;;;;5095607;28;19920;-55
2021/12/24 05:45:43;;;;;;;;;;;0.60;99.90;;;;;;5095022;28;19920;-55
2021/12/24 05:48:22;;;;;;;;;;;0.60;99.90;;;;;;5095715;28;19919;-53
2021/12/24 05:50:51;;;;;;;;;;;0.70;99.90;;;;;;5095487;28;19920;-55
2021/12/24 05:53:38;;;;;;;;;;;0.60;99.90;;;;;;5114054;28;19926;-56
2021/12/24 05:56:11;;;;;;;;;;;0.60;99.90;;;;;;5094984;28;19919;-54
2021/12/24 05:58:41;;;;;;;;;;;0.50;99.90;;;;;;5095798;28;19926;-55
2021/12/24 06:01:08;;;;;;;;;;;0.40;99.90;;;;;;5095264;28;19924;-52
2021/12/24 06:03:44;;;;;;;;;;;0.40;99.90;;;;;;5113440;28;20340;-52
2021/12/24 06:06:11;;;;;;;;;;;0.40;99.90;;;;;;5113047;28;19919;-55
2021/12/24 06:08:38;;;;;;;;;;;0.30;99.90;;;;;;5113378;28;20329;-54
2021/12/24 06:11:05;;;;;;;;;;;0.30;99.90;;;;;;5113300;28;20455;-55
2021/12/24 06:13:33;;;;;;;;;;;0.40;99.90;;;;;;5113154;28;19919;-55
2021/12/24 06:16:00;;;;;;;;;;;0.40;99.90;;;;;;5112126;28;19928;-55
2021/12/24 06:18:29;;;;;;;;;;;0.40;99.90;;;;;;5113275;28;19919;-54
2021/12/24 06:20:57;;;;;;;;;;;0.40;99.90;;;;;;5113055;28;20383;-53
2021/12/24 06:23:26;;;;;;;;;;;0.40;99.90;;;;;;5113108;28;19919;-52
2021/12/24 06:25:54;;;;;;;;;;;0.40;99.90;;;;;;5112477;28;20303;-53
2021/12/24 06:28:22;;;;;;;;;;;0.40;99.90;;;;;;5113200;28;19995;-52
2021/12/24 06:30:49;;;;;;;;;;;0.30;99.90;;;;;;5112893;28;20022;-52
2021/12/24 06:33:16;;;;;;;;;;;0.30;99.90;;;;;;5112998;28;19923;-54
2021/12/24 06:35:43;;;;;;;;;;;0.30;99.90;;;;;;5112403;28;19920;-53
2021/12/24 06:38:10;;;;;;;;;;;0.30;99.90;;;;;;5112910;28;19945;-54
2021/12/24 06:40:37;;;;;;;;;;;0.30;99.90;;;;;;5112727;28;19920;-55
2021/12/24 06:43:04;;;;;;;;;;;0.40;99.90;;;;;;5112990;28;19919;-56
2021/12/24 06:45:31;;;;;;;;;;;0.40;99.90;;;;;;5112294;28;19965;-54
2021/12/24 06:47:59;;;;;;;;;;;0.40;99.90;;;;;;5112852;28;19930;-55
2021/12/24 06:50:26;;;;;;;;;;;0.40;99.90;;;;;;5112592;28;19969;-55
2021/12/24 06:52:53;;;;;;;;;;;0.40;99.90;;;;;;5112934;28;19926;-55
2021/12/24 06:55:22;;;;;;;;;;;0.40;99.90;;;;;;5112121;28;20367;-56
2021/12/24 06:57:55;;;;;;;;;;;0.40;99.90;;;;;;5094509;28;20352;-54
2021/12/24 07:00:22;;;;;;;;;;;0.40;99.90;;;;;;5094319;28;20011;-56
2021/12/24 07:02:52;;;;;;;;;;;0.40;99.90;;;;;;5094223;28;20349;-55
2021/12/24 07:05:19;;;;;;;;;;;0.40;99.90;;;;;;5112112;28;19919;-55
2021/12/24 07:07:45;;;;;;;;;;;0.40;99.90;;;;;;5112627;28;20334;-55
2021/12/24 07:10:12;;;;;;;;;;;0.40;99.90;;;;;;5112443;28;19973;-53
2021/12/24 07:12:39;;;;;;;;;;;0.40;99.90;;;;;;5112473;28;19927;-53
2021/12/24 07:15:07;;;;;;;;;;;0.40;99.90;;;;;;5094147;28;19962;-56
2021/12/24 07:17:34;;;;;;;;;;;0.50;99.90;;;;;;5112006;28;19969;-57
2021/12/24 07:20:01;;;;;;;;;;;0.60;99.90;;;;;;5112201;28;20388;-56
2021/12/24 07:22:27;;;;;;;;;;;0.60;99.90;;;;;;5112281;28;19930;-55
2021/12/24 07:24:54;;;;;;;;;;;0.60;99.90;;;;;;5112203;28;19919;-57
2021/12/24 07:27:21;;;;;;;;;;;0.60;99.90;;;;;;5112376;28;19920;-55
2021/12/24 07:29:49;;;;;;;;;;;0.60;99.90;;;;;;5116416;28;19927;-56
2021/12/24 07:32:16;;;;;;;;;;;0.70;99.90;;;;;;5116266;28;19923;-56
2021/12/24 07:34:43;;;;;;;;;;;0.70;99.90;;;;;;5116386;28;19968;-54
2021/12/24 07:37:10;;;;;;;;;;;0.70;99.90;;;;;;5116015;28;19942;-55
2021/12/24 07:39:36;;;;;;;;;;;0.80;99.90;;;;;;5116279;28;19919;-56
2021/12/24 07:42:03;;;;;;;;;;;0.90;99.90;;;;;;5116096;28;19926;-54
2021/12/24 07:44:34;;;;;;;;;;;1.00;99.90;;;;;;5097820;28;19923;-54
2021/12/24 07:47:03;;;;;;;;;;;1.00;99.90;;;;;;5127979;27;19923;-53
2021/12/24 07:49:32;;;;;;;;;;;1.00;99.90;;;;;;5136617;27;20285;-52
2021/12/24 07:52:08;;;;;;;;;;;1.10;99.90;;;;;;5124989;27;20380;-52
2021/12/24 07:54:37;;;;;;;;;;;1.10;99.90;;;;;;5115436;28;20014;-54
2021/12/24 07:57:04;;;;;;;;;;;1.20;99.90;;;;;;5117875;27;19956;-52
2021/12/24 07:59:38;;;;;;;;;;;1.10;99.90;;;;;;5116060;28;19943;-54
2021/12/24 08:02:10;;;;;;;;;;;1.20;99.90;;;;;;5123636;27;19928;-54
2021/12/24 08:04:38;;;;;;;;;;;1.20;99.90;;;;;;5115858;28;20580;-57
2021/12/24 08:07:05;;;;;;;;;;;1.20;99.90;;;;;;5117265;27;19973;-54
2021/12/24 08:09:32;;;;;;;;;;;1.20;99.90;;;;;;5115910;28;19919;-54
2021/12/24 08:11:59;;;;;;;;;;;1.20;99.90;;;;;;5128869;27;20516;-52
2021/12/24 08:14:25;;;;;;;;;;;1.30;99.90;;;;;;5136238;27;20035;-55
2021/12/24 08:16:52;;;;;;;;;;;1.30;99.90;;;;;;5135119;27;19919;-56
2021/12/24 08:19:19;;;;;;;;;;;1.30;99.90;;;;;;5136417;27;19930;-52
2021/12/24 08:21:46;;;;;;;;;;;1.20;99.90;;;;;;5135654;27;19919;-56
2021/12/24 08:24:13;;;;;;;;;;;1.20;99.90;;;;;;5136016;27;19927;-55
2021/12/24 08:26:40;;;;;;;;;;;1.30;99.90;;;;;;5126267;27;20337;-56
2021/12/24 08:29:07;;;;;;;;;;;1.30;99.90;;;;;;5129856;27;19942;-55
2021/12/24 08:31:34;;;;;;;;;;;1.30;99.90;;;;;;5129583;27;19920;-54
2021/12/24 08:34:02;;;;;;;;;;;1.30;99.90;;;;;;5124077;27;19926;-56
2021/12/24 08:36:28;;;;;;;;;;;1.50;99.90;;;;;;5122567;27;19923;-56
2021/12/24 08:38:55;;;;;;;;;;;1.50;99.90;;;;;;5124566;27;19924;-55
2021/12/24 08:41:23;;;;;;;;;;;1.60;99.90;;;;;;5124125;27;20267;-54
2021/12/24 08:43:50;;;;;;;;;;;1.60;99.90;;;;;;5120580;27;19926;-54
2021/12/24 08:46:17;;;;;;;;;;;1.60;99.90;;;;;;5120891;27;19964;-55
2021/12/24 08:48:44;;;;;;;;;;;1.70;99.90;;;;;;5135491;27;19920;-57
2021/12/24 08:51:11;;;;;;;;;;;1.80;99.90;;;;;;5135413;27;19919;-57
2021/12/24 08:53:39;;;;;;;;;;;1.80;99.90;;;;;;5135498;27;19928;-55
2021/12/24 08:56:05;;;;;;;;;;;1.80;99.90;;;;;;5135102;27;19923;-53
2021/12/24 08:58:32;;;;;;;;;;;1.70;99.90;;;;;;5135502;27;20268;-56
2021/12/24 09:01:00;;;;;;;;;;;1.70;99.90;;;;;;5135392;27;20367;-58
2021/12/24 09:03:27;;;;;;;;;;;1.80;99.90;;;;;;5135302;27;20401;-56
2021/12/24 09:05:54;;;;;;;;;;;1.90;99.90;;;;;;5134674;27;19919;-53
2021/12/24 09:08:21;;;;;;;;;;;1.90;99.90;;;;;;5134924;27;20402;-56
2021/12/24 09:10:48;;;;;;;;;;;2.00;99.90;;;;;;5134952;27;19926;-55
2021/12/24 09:13:15;;;;;;;;;;;2.10;99.90;;;;;;5135252;27;19976;-55
2021/12/24 09:15:42;;;;;;;;;;;2.20;99.90;;;;;;5134456;27;20010;-57
2021/12/24 09:18:09;;;;;;;;;;;2.20;99.90;;;;;;5135084;27;19923;-57
2021/12/24 09:20:40;;;;;;;;;;;2.20;99.90;;;;;;5134709;27;19956;-55
2021/12/24 09:23:07;;;;;;;;;;;2.20;99.90;;;;;;5135072;27;19919;-56
2021/12/24 09:25:34;;;;;;;;;;;2.40;99.90;;;;;;5134344;27;19919;-56
2021/12/24 09:28:01;;;;;;;;;;;2.50;99.90;;;;;;5134791;27;19923;-56
2021/12/24 09:30:28;;;;;;;;;;;2.50;99.90;;;;;;5134730;27;20341;-56
2021/12/24 09:32:54;;;;;;;;;;;2.60;99.90;;;;;;5134841;27;19927;-57
2021/12/24 09:35:22;;;;;;;;;;;2.70;99.90;;;;;;5134228;27;19920;-57
2021/12/24 09:37:49;;;;;;;;;;;2.70;99.90;;;;;;5134750;27;19923;-56
2021/12/24 09:40:16;;;;;;;;;;;2.70;99.90;;;;;;5134544;27;20376;-56
2021/12/24 09:42:43;;;;;;;;;;;2.70;99.90;;;;;;5129864;27;20164;-56
2021/12/24 09:45:11;;;;;;;;;;;2.80;99.90;;;;;;5113294;27;19959;-57
2021/12/24 09:47:39;;;;;;;;;;;2.70;99.90;;;;;;5113887;28;19969;-57
2021/12/24 09:50:07;;;;;;;;;;;2.70;99.90;;;;;;5112963;28;19920;-54
2021/12/24 09:52:34;;;;;;;;;;;2.70;99.90;;;;;;5113691;28;19920;-54
2021/12/24 09:55:12;;;;;;;;;;;2.60;99.90;;;;;;5113939;28;19963;-55
2021/12/24 09:57:39;;;;;;;;;;;2.60;99.90;;;;;;5113484;28;19973;-55
2021/12/24 10:00:08;;;;;;;;;;;2.60;99.90;;;;;;5116131;27;19942;-53
2021/12/24 10:02:46;;;;;;;;;;;2.60;99.90;;;;;;5123503;27;19938;-56
2021/12/24 10:05:30;;;;;;;;;;;2.70;99.90;;;;;;5121957;27;19919;-58
2021/12/24 10:08:07;;;;;;;;;;;2.70;99.90;;;;;;5130783;27;19928;-56
2021/12/24 10:10:35;;;;;;;;;;;2.80;99.90;;;;;;5124116;27;19923;-55
2021/12/24 10:13:20;;;;;;;;;;;2.80;99.90;;;;;;5123727;27;19919;-56
2021/12/24 10:15:58;;;;;;;;;;;2.90;99.90;;;;;;5133418;27;20364;-56
2021/12/24 10:18:25;;;;;;;;;;;3.00;99.90;;;;;;5133816;27;19919;-57
2021/12/24 10:21:22;;;;;;;;;;;3.20;99.90;;;;;;5133789;27;19965;-56
2021/12/24 10:23:56;;;;;;;;;;;3.40;99.90;;;;;;5112282;27;19923;-57
2021/12/24 10:26:32;;;;;;;;;;;3.50;99.90;;;;;;5126749;27;20290;-57
2021/12/24 10:29:00;;;;;;;;;;;3.50;99.90;;;;;;5124583;27;19920;-57
2021/12/24 10:31:31;;;;;;;;;;;3.60;99.90;;;;;;5121776;27;19954;-56
2021/12/24 10:34:16;;;;;;;;;;;3.70;99.90;;;;;;5123033;27;19927;-58
2021/12/24 10:36:49;;;;;;;;;;;3.80;99.90;;;;;;5123177;27;19955;-57
2021/12/24 10:39:16;;;;;;;;;;;3.90;99.90;;;;;;5123914;27;19926;-57
2021/12/24 10:41:43;;;;;;;;;;;4.00;99.90;;;;;;5122996;27;19924;-58
2021/12/24 10:44:17;;;;;;;;;;;4.10;99.90;;;;;;5127230;27;19923;-56
2021/12/24 10:47:02;;;;;;;;;;;4.20;99.90;;;;;;5112466;28;19977;-56
2021/12/24 10:54:52;;;;;;;;;;;4.20;99.90;;;;;;5112200;28;19919;-55
2021/12/24 10:57:20;;;;;;;;;;;4.20;99.90;;;;;;5112284;28;19927;-57
2021/12/24 10:59:50;;;;;;;;;;;4.20;99.90;;;;;;5112564;28;19920;-57
2021/12/24 11:02:17;;;;;;;;;;;4.10;99.90;;;;;;5110776;28;20026;-56
2021/12/24 11:04:44;;;;;;;;;;;4.10;99.90;;;;;;5111389;28;19923;-56
2021/12/24 11:07:30;;;;;;;;;;;4.00;99.90;;;;;;5111051;28;20030;-52
2021/12/24 11:10:23;;;;;;;;;;;4.00;99.90;;;;;;5111605;28;19938;-56
2021/12/24 11:13:12;;;;;;;;;;;4.10;99.90;;;;;;5109211;28;19923;-56
2021/12/24 11:15:39;;;;;;;;;;;4.10;99.90;;;;;;5111404;28;19924;-55
2021/12/24 11:18:14;;;;;;;;;;;4.10;99.90;;;;;;5112162;28;20398;-56
2021/12/24 11:20:41;;;;;;;;;;;4.10;99.90;;;;;;5112377;28;19962;-56
2021/12/24 11:23:10;;;;;;;;;;;4.10;99.90;;;;;;5125891;28;19919;-56
2021/12/24 11:25:41;;;;;;;;;;;4.10;99.90;;;;;;5132291;28;19988;-56
2021/12/24 11:28:09;;;;;;;;;;;4.10;99.90;;;;;;5132890;28;19930;-55
2021/12/24 11:30:38;;;;;;;;;;;4.10;99.90;;;;;;5132656;28;19919;-53
2021/12/24 11:33:05;;;;;;;;;;;4.10;99.90;;;;;;5132793;28;19920;-55
2021/12/24 11:35:32;;;;;;;;;;;4.10;99.90;;;;;;5113976;28;19927;-57
2021/12/24 11:37:59;;;;;;;;;;;4.00;99.90;;;;;;5132661;28;19926;-57
2021/12/24 11:40:27;;;;;;;;;;;4.00;99.90;;;;;;5131433;28;19919;-57
2021/12/24 11:42:57;;;;;;;;;;;4.10;99.90;;;;;;5121800;28;19920;-57
2021/12/24 11:45:25;;;;;;;;;;;4.00;99.90;;;;;;5120566;28;20292;-55
2021/12/24 11:47:53;;;;;;;;;;;4.00;99.90;;;;;;5123791;28;20596;-57
2021/12/24 11:50:20;;;;;;;;;;;4.10;99.90;;;;;;5132557;28;19924;-58
2021/12/24 11:52:48;;;;;;;;;;;4.00;99.90;;;;;;5132524;28;20010;-57
2021/12/24 11:55:15;;;;;;;;;;;4.00;99.90;;;;;;5131807;28;19923;-57
2021/12/24 11:57:55;;;;;;;;;;;3.90;99.90;;;;;;5119379;28;19958;-56
2021/12/24 12:00:24;;;;;;;;;;;3.90;99.90;;;;;;5120612;28;19943;-56
2021/12/24 12:02:51;;;;;;;;;;;3.90;99.90;;;;;;5117476;28;19957;-56
2021/12/24 12:05:24;;;;;;;;;;;3.80;99.90;;;;;;5119696;28;20291;-56
2021/12/24 12:07:52;;;;;;;;;;;3.80;99.90;;;;;;5119115;28;19941;-56
2021/12/24 12:10:37;;;;;;;;;;;3.80;99.90;;;;;;5121408;28;19919;-56
2021/12/24 12:13:04;;;;;;;;;;;3.80;99.90;;;;;;5120320;28;19919;-57
2021/12/24 12:15:31;;;;;;;;;;;3.80;99.90;;;;;;5123257;27;20283;-56
2021/12/24 12:17:58;;;;;;;;;;;3.70;99.90;;;;;;5126226;27;20018;-55
2021/12/24 12:20:35;;;;;;;;;;;3.80;99.90;;;;;;5115438;28;19923;-56
2021/12/24 12:23:02;;;;;;;;;;;3.80;99.90;;;;;;5115753;28;19920;-56
2021/12/24 12:25:31;;;;;;;;;;;3.80;99.90;;;;;;5114960;28;19973;-56
2021/12/24 12:27:59;;;;;;;;;;;3.90;99.90;;;;;;5115564;28;19919;-56
2021/12/24 12:30:28;;;;;;;;;;;4.00;99.90;;;;;;5118077;27;19919;-56
2021/12/24 12:33:31;;;;;;;;;;;4.20;99.90;;;;;;5135803;27;19920;-57
2021/12/24 12:35:59;;;;;;;;;;;4.40;99.90;;;;;;5031693;28;19925;-57
2021/12/24 12:38:28;;;;;;;;;;;4.60;99.90;;;;;;5114207;27;20028;-56
2021/12/24 12:41:13;;;;;;;;;;;4.70;99.90;;;;;;5135806;27;19919;-57
2021/12/24 12:43:40;;;;;;;;;;;4.70;99.90;;;;;;5135938;27;20456;-57
2021/12/24 12:46:17;;;;;;;;;;;4.70;99.90;;;;;;5135055;27;19983;-57
2021/12/24 12:48:47;;;;;;;;;;;4.70;99.90;;;;;;5135587;27;20379;-56
2021/12/24 12:51:14;;;;;;;;;;;4.70;99.90;;;;;;5135536;27;19975;-56
2021/12/24 12:53:42;;;;;;;;;;;4.80;99.90;;;;;;5135363;27;19953;-57
2021/12/24 12:56:18;;;;;;;;;;;4.80;99.90;;;;;;5130628;27;20429;-57
2021/12/24 12:58:46;;;;;;;;;;;4.70;99.90;;;;;;5125437;27;19980;-56
2021/12/24 13:01:15;;;;;;;;;;;4.50;99.90;;;;;;5123378;27;19919;-56
2021/12/24 13:03:57;;;;;;;;;;;4.40;99.90;;;;;;5122584;27;19949;-56
2021/12/24 13:06:36;;;;;;;;;;;4.30;99.90;;;;;;5125873;27;20395;-57
2021/12/24 13:09:04;;;;;;;;;;;4.30;99.90;;;;;;5125869;27;19942;-56
2021/12/24 13:11:35;;;;;;;;;;;4.40;99.90;;;;;;5124532;27;20336;-56
2021/12/24 13:14:02;;;;;;;;;;;4.40;99.90;;;;;;5124886;27;19988;-57
2021/12/24 13:16:34;;;;;;;;;;;4.40;99.90;;;;;;5123711;27;20376;-57
2021/12/24 13:24:18;;;;;;;;;;;4.30;99.90;;;;;;5123053;27;19954;-56
2021/12/24 13:26:45;;;;;;;;;;;4.30;99.90;;;;;;5123019;27;19972;-58
2021/12/24 13:29:13;;;;;;;;;;;4.30;99.90;;;;;;5124166;27;20371;-56
2021/12/24 13:31:40;;;;;;;;;;;4.30;99.90;;;;;;5124791;27;19962;-58
2021/12/24 13:34:11;;;;;;;;;;;4.30;99.90;;;;;;5123482;27;19919;-57
2021/12/24 13:36:38;;;;;;;;;;;4.30;99.90;;;;;;5120789;27;19926;-58
2021/12/24 13:39:06;;;;;;;;;;;4.30;99.90;;;;;;5125246;27;19927;-57
2021/12/24 13:41:33;;;;;;;;;;;4.20;99.90;;;;;;5121654;27;19920;-57
2021/12/24 13:44:00;;;;;;;;;;;4.20;99.90;;;;;;5122689;27;19931;-57
2021/12/24 13:46:29;;;;;;;;;;;4.20;99.90;;;;;;5130922;27;20022;-56
2021/12/24 13:49:17;;;;;;;;;;;4.10;99.90;;;;;;5122150;27;19925;-57
2021/12/24 13:54:34;;;;;;;;;;;4.10;99.90;;;;;;5125366;27;19919;-58
2021/12/24 13:57:06;;;;;;;;;;;4.10;99.90;;;;;;5122695;27;19927;-56
2021/12/24 13:59:34;;;;;;;;;;;4.10;99.90;;;;;;5113532;28;19919;-57
2021/12/24 14:02:01;;;;;;;;;;;4.00;99.90;;;;;;5113653;28;19969;-57
2021/12/24 14:04:30;;;;;;;;;;;4.00;99.90;;;;;;5113515;28;19919;-57
2021/12/24 14:06:59;;;;;;;;;;;4.00;99.90;;;;;;5113138;28;19955;-58
2021/12/24 14:09:31;;;;;;;;;;;4.00;99.90;;;;;;5113484;28;20387;-57
2021/12/24 14:11:59;;;;;;;;;;;3.90;99.90;;;;;;5116139;27;19920;-58
2021/12/24 14:14:39;;;;;;;;;;;3.90;99.90;;;;;;5123628;27;19930;-58
2021/12/24 14:17:34;;;;;;;;;;;3.80;99.90;;;;;;5112950;28;19965;-58
2021/12/24 14:20:24;;;;;;;;;;;3.80;99.90;;;;;;5113328;28;19965;-57
2021/12/24 14:22:51;;;;;;;;;;;3.80;99.90;;;;;;5113272;28;20350;-56
2021/12/24 14:25:18;;;;;;;;;;;3.70;99.90;;;;;;5112592;28;19936;-57
2021/12/24 14:27:47;;;;;;;;;;;3.70;99.90;;;;;;5120542;27;19920;-56
2021/12/24 14:30:19;;;;;;;;;;;3.70;99.90;;;;;;5133558;27;19972;-57
2021/12/24 14:32:47;;;;;;;;;;;3.70;99.90;;;;;;5133777;27;19920;-57
2021/12/24 14:35:22;;;;;;;;;;;3.70;99.90;;;;;;5133049;27;19923;-57
2021/12/24 14:38:01;;;;;;;;;;;3.50;99.90;;;;;;5133220;27;19920;-57
2021/12/24 14:40:29;;;;;;;;;;;3.50;99.90;;;;;;5133497;27;20451;-58
2021/12/24 14:42:56;;;;;;;;;;;3.40;99.90;;;;;;5130872;27;20290;-57
2021/12/24 14:45:23;;;;;;;;;;;3.40;99.90;;;;;;5123076;27;19948;-58
2021/12/24 14:47:56;;;;;;;;;;;3.50;99.90;;;;;;5118295;27;20023;-58
2021/12/24 14:50:23;;;;;;;;;;;3.50;99.90;;;;;;5112847;28;19920;-58
2021/12/24 14:53:10;;;;;;;;;;;3.50;99.90;;;;;;5112725;28;19920;-57
2021/12/24 14:55:48;;;;;;;;;;;3.40;99.90;;;;;;5126716;27;20279;-58
2021/12/24 14:58:26;;;;;;;;;;;3.40;99.90;;;;;;5133186;27;19927;-57
2021/12/24 15:00:54;;;;;;;;;;;3.40;99.90;;;;;;5123822;27;20000;-58
2021/12/24 15:03:21;;;;;;;;;;;3.40;99.90;;;;;;5122613;27;20017;-57
2021/12/24 15:05:49;;;;;;;;;;;3.40;99.90;;;;;;5121744;27;19919;-57
2021/12/24 15:08:18;;;;;;;;;;;3.30;99.90;;;;;;5133207;27;19923;-56
2021/12/24 15:10:55;;;;;;;;;;;3.30;99.90;;;;;;5133114;27;19926;-57
2021/12/24 15:13:23;;;;;;;;;;;3.30;99.90;;;;;;5133154;27;19919;-57
2021/12/24 15:15:50;;;;;;;;;;;3.30;99.90;;;;;;5132692;27;20387;-58
2021/12/24 15:18:17;;;;;;;;;;;3.30;99.90;;;;;;5126581;28;19942;-57
2021/12/24 15:20:44;;;;;;;;;;;3.30;99.90;;;;;;5121259;28;19923;-57
2021/12/24 15:23:11;;;;;;;;;;;3.30;99.90;;;;;;5122140;28;19931;-58
2021/12/24 15:25:37;;;;;;;;;;;3.20;99.90;;;;;;5122686;28;20034;-56
2021/12/24 15:28:09;;;;;;;;;;;3.30;99.90;;;;;;5121211;28;19924;-56
2021/12/24 15:30:39;;;;;;;;;;;3.20;99.90;;;;;;5121550;28;19923;-56
2021/12/24 15:33:07;;;;;;;;;;;3.20;99.90;;;;;;5122919;28;19919;-57
2021/12/24 15:35:34;;;;;;;;;;;3.10;99.90;;;;;;5121908;28;20018;-57
2021/12/24 15:38:01;;;;;;;;;;;3.10;99.90;;;;;;5120951;28;19924;-57
2021/12/24 15:40:29;;;;;;;;;;;3.10;99.90;;;;;;5122363;28;19926;-58
2021/12/24 15:43:06;;;;;;;;;;;3.20;99.90;;;;;;5121525;28;19920;-58
2021/12/24 15:45:34;;;;;;;;;;;3.20;99.90;;;;;;5121116;28;19919;-58
2021/12/24 15:48:03;;;;;;;;;;;3.10;99.90;;;;;;5122975;27;20438;-57
2021/12/24 15:50:29;;;;;;;;;;;3.10;99.90;;;;;;5125987;27;19924;-57
2021/12/24 15:52:56;;;;;;;;;;;3.10;99.90;;;;;;5125272;27;20428;-58
2021/12/24 15:55:23;;;;;;;;;;;3.10;99.90;;;;;;5126691;27;19919;-57
2021/12/24 15:57:50;;;;;;;;;;;3.10;99.90;;;;;;5121095;27;20344;-58
2021/12/24 16:00:17;;;;;;;;;;;3.10;99.90;;;;;;5126638;27;19927;-56
2021/12/24 16:02:44;;;;;;;;;;;3.00;99.90;;;;;;5124657;27;19923;-58
2021/12/24 16:05:12;;;;;;;;;;;3.00;99.90;;;;;;5120942;27;19964;-57
2021/12/24 16:07:39;;;;;;;;;;;3.00;99.90;;;;;;5115964;28;19920;-57
2021/12/24 16:10:06;;;;;;;;;;;3.00;99.90;;;;;;5115818;28;19966;-57
2021/12/24 16:12:33;;;;;;;;;;;3.00;99.90;;;;;;5126558;27;19927;-57
2021/12/24 16:15:01;;;;;;;;;;;3.00;99.90;;;;;;5132658;22;20018;31
2021/12/24 16:17:29;;;;;;;;;;;3.00;99.90;;;;;;5088896;28;19927;-60
2021/12/24 16:19:55;;;;;;;;;;;3.10;99.90;;;;;;5091283;28;19970;-60
2021/12/24 16:22:22;;;;;;;;;;;3.10;99.90;;;;;;5092589;28;19978;-60
2021/12/24 16:24:49;;;;;;;;;;;3.10;99.90;;;;;;5084425;28;19955;-60
2021/12/24 16:27:16;;;;;;;;;;;3.10;99.90;;;;;;5085520;28;19928;-60
2021/12/24 16:29:57;;;;;;;;;;;3.10;99.90;;;;;;5064362;28;20364;-60
2021/12/24 16:32:25;;;;;;;;;;;3.10;99.90;;;;;;5068030;28;19934;-60
2021/12/24 16:34:53;;;;;;;;;;;3.00;99.90;;;;;;5072547;28;20066;-60
2021/12/24 16:37:20;;;;;;;;;;;3.00;99.90;;;;;;5077724;28;19921;-60
2021/12/24 16:39:47;;;;;;;;;;;3.00;99.90;;;;;;5071160;28;20015;-60
2021/12/24 16:42:15;;;;;;;;;;;3.00;99.90;;;;;;5074346;28;19963;-60